Tropical Cyclones
[Index]
Main Index Home Page Stock Weather Photos Extreme Storms Discussion Storm News and Storm Chasing Reports Tropical Cyclones / Hurricanes / Typhoons Weather Data and Links Wild Fires / Bushfires Weather Observation Techniques Weather Picture Catalogue Tornado Pictures and Reports Stock Video Footage and DVDs for sale
Season 1986-1987 Tropical Cyclone 198706 Track Map
Season 1986-1987 Summaries: [BoM-AU] [JTWC-AU] [JTWC-SIO] [JTWC-SPAC] [JTWC-SH]
<<- Previous TC | JTWC 1986-1987 Season | Next TC ->>

click for intensity scale information  Lat/long Grid: Show Hide

 Date Labels: Show Hide

Joint Typhoon Warning Centre Cyclone Data

Name: 198706

06 Jan 1987 06:00 UTC to 12 Jan 1987 12:00 UTC

    date/time    lat    long     hPa   cat  kts
1987-01-06 06    5.7    75.9                  25          
1987-01-06 12    6.0    76.0                  30          
1987-01-06 18    6.3    76.1                  30          
1987-01-07 00    6.5    76.3                  30          
1987-01-07 06    6.8    76.4                  35          
1987-01-07 12    7.1    76.6                  35          
1987-01-07 18    7.5    76.6                  35          
1987-01-08 00    8.0    76.5                  35          
1987-01-08 06    8.7    77.0                  35          
1987-01-08 12    9.4    77.9                  35          
1987-01-08 18   10.1    78.7                  35          
1987-01-09 00   10.9    79.1                  35          
1987-01-09 06   11.2    79.4                  35          
1987-01-09 12   11.2    79.7                  35          
1987-01-09 18   11.1    79.7                  35          
1987-01-10 00   11.2    79.8                  35          
1987-01-10 06   11.3    79.9                  35          
1987-01-10 12   11.3    80.1            1     40          
1987-01-10 18   11.3    80.1            1     45          
1987-01-11 00   11.4    79.6            1     45          
1987-01-11 06   11.4    79.2            1     45          
1987-01-11 12   11.3    79.1            1     45          
1987-01-11 18   11.2    79.3            1     45          
1987-01-12 00   11.2    79.3            1     45          
1987-01-12 06   11.3    79.1            1     45          
1987-01-12 12   11.3    79.0                  35          
Winds are 1-min average.

Tropical cyclone tracks developed by Michael Bath using data from the Joint Typhoon Warning Centre Best Tracks and Google Maps.


[Australian Severe Weather index] [Copyright Notice] [Email Contacts] [Search This Site] [Privacy Policy]
Document: tropical_cyclone_198706.htm Updated: 18 September 2016